createdAt,value
2023-02-11T00:01:49.742Z,-5.11
2023-02-11T00:04:16.374Z,-5.15
2023-02-11T00:06:43.123Z,-5.17
2023-02-11T00:09:10.463Z,-5.17
2023-02-11T00:11:37.034Z,-5.19
2023-02-11T00:14:08.039Z,-5.16
2023-02-11T00:16:35.143Z,-5.09
2023-02-11T00:19:03.538Z,-5.07
2023-02-11T00:21:30.349Z,-5.09
2023-02-11T00:23:59.728Z,-5.12
2023-02-11T00:26:32.316Z,-5.12
2023-02-11T00:28:59.228Z,-5.08
2023-02-11T00:31:26.636Z,-5.09
2023-02-11T00:33:54.171Z,-5.04
2023-02-11T00:36:26.667Z,-4.96
2023-02-11T00:38:54.368Z,-5.01
2023-02-11T00:41:21.499Z,-4.93
2023-02-11T00:43:48.716Z,-4.90
2023-02-11T00:46:15.712Z,-4.96
2023-02-11T00:48:43.042Z,-5.00
2023-02-11T00:51:10.100Z,-5.00
2023-02-11T00:53:36.980Z,-4.95
2023-02-11T00:56:04.150Z,-4.96
2023-02-11T00:58:31.150Z,-4.93
2023-02-11T01:00:57.864Z,-4.88
2023-02-11T01:03:24.549Z,-4.81
2023-02-11T01:05:51.552Z,-4.73
2023-02-11T01:08:18.343Z,-4.68
2023-02-11T01:10:45.021Z,-4.60
2023-02-11T01:13:11.760Z,-4.68
2023-02-11T01:15:38.295Z,-4.94
2023-02-11T01:18:05.652Z,-5.25
2023-02-11T01:20:32.320Z,-5.49
2023-02-11T01:22:58.895Z,-5.52
2023-02-11T01:25:25.446Z,-5.56
2023-02-11T01:27:52.071Z,-5.72
2023-02-11T01:30:18.654Z,-5.64
2023-02-11T01:32:45.181Z,-5.59
2023-02-11T01:35:11.939Z,-5.63
2023-02-11T01:37:38.601Z,-5.84
2023-02-11T01:40:08.104Z,-5.97
2023-02-11T01:42:34.768Z,-5.94
2023-02-11T01:45:21.932Z,-6.02
2023-02-11T01:47:48.532Z,-6.11
2023-02-11T01:50:15.201Z,-6.13
2023-02-11T01:52:42.631Z,-5.89
2023-02-11T01:55:31.784Z,-5.70
2023-02-11T01:58:02.902Z,-5.78
2023-02-11T02:00:36.251Z,-5.88
2023-02-11T02:03:31.418Z,-6.03
2023-02-11T02:06:06.032Z,-6.16
2023-02-11T02:08:46.949Z,-6.36
2023-02-11T02:11:13.555Z,-6.54
2023-02-11T02:13:40.122Z,-6.56
2023-02-11T02:16:12.652Z,-6.57
2023-02-11T02:18:53.081Z,-6.51
2023-02-11T02:21:30.178Z,-6.66
2023-02-11T02:24:15.470Z,-6.60
2023-02-11T02:27:13.125Z,-6.56
2023-02-11T02:29:45.504Z,-6.59
2023-02-11T02:32:40.305Z,-6.55
2023-02-11T02:35:14.792Z,-6.54
2023-02-11T02:37:50.708Z,-6.53
2023-02-11T02:40:23.760Z,-6.53
2023-02-11T02:42:51.423Z,-6.62
2023-02-11T02:45:19.300Z,-6.62
2023-02-11T02:47:45.854Z,-6.70
2023-02-11T02:50:16.751Z,-6.79
2023-02-11T02:53:02.058Z,-6.87
2023-02-11T02:55:37.507Z,-6.93
2023-02-11T02:58:32.946Z,-6.87
2023-02-11T03:01:04.903Z,-6.95
2023-02-11T03:03:37.651Z,-7.03
2023-02-11T03:06:22.672Z,-6.93
2023-02-11T03:08:57.095Z,-6.87
2023-02-11T03:11:25.872Z,-7.01
2023-02-11T03:13:54.605Z,-7.05
2023-02-11T03:16:27.393Z,-7.02
2023-02-11T03:19:03.391Z,-6.99
2023-02-11T03:21:33.398Z,-7.02
2023-02-11T03:24:05.875Z,-6.86
2023-02-11T03:26:48.606Z,-6.77
2023-02-11T03:29:43.167Z,-6.76
2023-02-11T03:32:18.211Z,-6.63
2023-02-11T03:34:52.934Z,-6.66
2023-02-11T03:37:31.527Z,-6.57
2023-02-11T03:40:03.559Z,-6.62
2023-02-11T03:42:39.012Z,-6.70
2023-02-11T03:45:10.177Z,-6.70
2023-02-11T03:47:39.982Z,-6.55
2023-02-11T03:50:08.978Z,-6.52
2023-02-11T03:52:37.903Z,-6.55
2023-02-11T03:55:11.248Z,-6.66
2023-02-11T03:57:38.332Z,-6.73
2023-02-11T04:00:06.529Z,-6.76
2023-02-11T04:02:36.100Z,-6.86
2023-02-11T04:05:03.256Z,-6.96
2023-02-11T04:07:30.074Z,-6.88
2023-02-11T04:09:56.684Z,-6.81
2023-02-11T04:12:23.247Z,-6.66
2023-02-11T04:14:49.854Z,-6.70
2023-02-11T04:17:16.899Z,-6.66
2023-02-11T04:19:43.441Z,-6.82
2023-02-11T04:22:10.287Z,-6.85
2023-02-11T04:24:36.828Z,-6.76
2023-02-11T04:27:03.523Z,-6.79
2023-02-11T04:29:30.346Z,-6.74
2023-02-11T04:31:56.968Z,-6.85
2023-02-11T04:34:24.565Z,-6.86
2023-02-11T04:36:51.265Z,-6.78
2023-02-11T04:39:18.022Z,-6.64
2023-02-11T04:41:44.661Z,-6.62
2023-02-11T04:44:11.242Z,-6.61
2023-02-11T04:46:37.807Z,-6.50
2023-02-11T04:49:04.530Z,-6.35
2023-02-11T04:51:31.237Z,-6.34
2023-02-11T04:53:57.784Z,-6.56
2023-02-11T04:56:24.380Z,-6.74
2023-02-11T04:58:50.990Z,-6.85
2023-02-11T05:01:17.740Z,-6.86
2023-02-11T05:03:44.932Z,-6.91
2023-02-11T05:06:12.199Z,-6.90
2023-02-11T05:08:39.865Z,-6.97
2023-02-11T05:11:06.603Z,-7.02
2023-02-11T05:13:33.437Z,-7.10
2023-02-11T05:16:00.200Z,-7.03
2023-02-11T05:18:26.760Z,-7.09
2023-02-11T05:20:53.355Z,-7.07
2023-02-11T05:23:20.087Z,-7.09
2023-02-11T05:25:46.631Z,-6.98
2023-02-11T05:28:13.157Z,-6.70
2023-02-11T05:30:39.854Z,-6.74
2023-02-11T05:33:06.501Z,-6.68
2023-02-11T05:35:33.039Z,-6.65
2023-02-11T05:37:59.559Z,-6.65
2023-02-11T05:40:26.192Z,-6.57
2023-02-11T05:42:52.769Z,-6.43
2023-02-11T05:45:19.305Z,-6.26
2023-02-11T05:47:45.909Z,-6.35
2023-02-11T05:50:12.638Z,-6.41
2023-02-11T05:52:39.257Z,-6.37
2023-02-11T05:55:06.490Z,-6.34
2023-02-11T05:57:33.037Z,-6.26
2023-02-11T05:59:59.590Z,-6.17
2023-02-11T06:02:26.171Z,-6.11
2023-02-11T06:04:52.783Z,-6.02
2023-02-11T06:07:19.804Z,-5.81
2023-02-11T06:09:47.475Z,-5.70
2023-02-11T06:12:13.983Z,-5.59
2023-02-11T06:14:40.612Z,-5.60
2023-02-11T06:17:07.303Z,-5.58
2023-02-11T06:19:34.269Z,-5.56
2023-02-11T06:22:00.863Z,-5.54
2023-02-11T06:24:50.956Z,-5.55
2023-02-11T06:27:14.214Z,-5.67
2023-02-11T06:29:40.733Z,-5.69
2023-02-11T06:32:10.104Z,-5.60
2023-02-11T06:34:42.573Z,-5.49
2023-02-11T06:37:09.102Z,-5.39
2023-02-11T06:39:35.624Z,-5.33
2023-02-11T06:42:02.177Z,-5.25
2023-02-11T06:44:28.687Z,-5.17
2023-02-11T06:46:55.307Z,-5.17
2023-02-11T06:49:21.919Z,-5.08
2023-02-11T06:51:48.472Z,-4.93
2023-02-11T06:54:15.083Z,-4.77
2023-02-11T06:56:41.832Z,-4.83
2023-02-11T06:59:08.980Z,-4.84
2023-02-11T07:01:35.662Z,-4.79
2023-02-11T07:04:02.238Z,-4.76
2023-02-11T07:06:28.958Z,-4.66
2023-02-11T07:08:56.552Z,-4.56
2023-02-11T07:11:25.965Z,-4.68
2023-02-11T07:13:54.686Z,-4.58
2023-02-11T07:16:21.419Z,-4.43
2023-02-11T07:18:49.021Z,-4.31
2023-02-11T07:21:19.408Z,-4.23
2023-02-11T07:23:47.052Z,-4.19
2023-02-11T07:26:15.948Z,-4.17
2023-02-11T07:28:43.546Z,-4.00
2023-02-11T07:31:18.938Z,-3.69
2023-02-11T07:33:48.473Z,-3.56
2023-02-11T07:36:16.473Z,-3.39
2023-02-11T07:38:43.904Z,-3.08
2023-02-11T07:41:12.904Z,-2.82
2023-02-11T07:43:40.289Z,-2.94
2023-02-11T07:46:10.131Z,-2.99
2023-02-11T07:48:37.654Z,-2.85
2023-02-11T07:51:13.674Z,-2.71
2023-02-11T07:53:41.111Z,-2.55
2023-02-11T07:56:08.776Z,-2.47
2023-02-11T07:58:35.803Z,-2.13
2023-02-11T08:01:07.405Z,-1.95
2023-02-11T08:03:35.182Z,-1.90
2023-02-11T08:06:13.150Z,-1.73
2023-02-11T08:08:40.449Z,-1.67
2023-02-11T08:11:13.227Z,-1.44
2023-02-11T08:13:40.072Z,-1.21
2023-02-11T08:16:08.000Z,-0.96
2023-02-11T08:18:35.443Z,-0.86
2023-02-11T08:21:06.837Z,-1.01
2023-02-11T08:23:33.831Z,-1.16
2023-02-11T08:26:13.170Z,-1.39
2023-02-11T08:28:40.980Z,-1.22
2023-02-11T08:31:13.842Z,-1.30
2023-02-11T08:33:41.110Z,-1.29
2023-02-11T08:36:16.774Z,-1.22
2023-02-11T08:38:44.059Z,-1.17
2023-02-11T08:41:11.401Z,-1.02
2023-02-11T08:43:41.674Z,-0.91
2023-02-11T08:46:10.056Z,-0.77
2023-02-11T08:48:36.636Z,-0.80
2023-02-11T08:51:11.552Z,-0.82
2023-02-11T08:53:39.281Z,-0.78
2023-02-11T08:56:06.480Z,-0.84
2023-02-11T08:58:33.374Z,-0.87
2023-02-11T09:01:00.108Z,-0.83
2023-02-11T09:03:26.684Z,-0.75
2023-02-11T09:05:53.444Z,-0.60
2023-02-11T09:08:21.062Z,-0.66
2023-02-11T09:10:47.976Z,-0.72
2023-02-11T09:13:14.812Z,-0.85
2023-02-11T09:15:45.532Z,-1.01
2023-02-11T09:18:12.206Z,-1.12
2023-02-11T09:20:38.834Z,-0.88
2023-02-11T09:23:05.384Z,-0.43
2023-02-11T09:25:31.940Z,-0.18
2023-02-11T09:27:58.619Z,-0.15
2023-02-11T09:30:25.186Z,0.15
2023-02-11T09:32:51.748Z,0.47
2023-02-11T09:35:18.322Z,0.59
2023-02-11T09:37:44.886Z,0.48
2023-02-11T09:40:12.969Z,0.62
2023-02-11T09:42:47.693Z,0.81
2023-02-11T09:45:26.743Z,0.98
2023-02-11T09:48:00.430Z,1.27
2023-02-11T09:50:34.433Z,1.27
2023-02-11T09:53:06.736Z,0.97
2023-02-11T09:55:38.048Z,0.95
2023-02-11T09:58:12.004Z,0.93
2023-02-11T10:00:45.101Z,0.74
2023-02-11T10:03:46.728Z,0.64
2023-02-11T10:06:20.127Z,0.65
2023-02-11T10:09:06.949Z,1.01
2023-02-11T10:11:57.814Z,1.09
2023-02-11T10:14:42.495Z,1.16
2023-02-11T10:17:36.920Z,1.09
2023-02-11T10:20:18.342Z,1.06
2023-02-11T10:22:55.724Z,0.99
2023-02-11T10:25:27.102Z,0.94
2023-02-11T10:27:58.024Z,0.75
2023-02-11T10:30:31.185Z,0.46
2023-02-11T10:33:04.369Z,0.18
2023-02-11T10:35:31.949Z,0.08
2023-02-11T10:37:59.685Z,0.19
2023-02-11T10:40:29.264Z,0.25
2023-02-11T10:43:00.810Z,0.28
2023-02-11T10:45:27.276Z,0.47
2023-02-11T10:47:55.245Z,1.20
2023-02-11T10:50:34.924Z,1.67
2023-02-11T10:53:21.605Z,2.17
2023-02-11T10:55:57.312Z,2.73
2023-02-11T10:58:30.757Z,3.18
2023-02-11T11:01:00.135Z,3.36
2023-02-11T11:03:37.032Z,3.65
2023-02-11T11:06:09.453Z,4.36
2023-02-11T11:08:49.241Z,4.71
2023-02-11T11:11:18.613Z,5.36
2023-02-11T11:13:54.324Z,5.57
2023-02-11T11:16:51.872Z,5.85
2023-02-11T11:19:25.940Z,5.94
2023-02-11T11:21:54.851Z,5.84
2023-02-11T11:24:31.255Z,5.73
2023-02-11T11:27:01.753Z,5.52
2023-02-11T11:29:39.583Z,5.56
2023-02-11T11:32:20.750Z,5.81
2023-02-11T11:34:54.099Z,5.92
2023-02-11T11:37:25.521Z,6.18
2023-02-11T11:40:09.824Z,6.44
2023-02-11T11:42:38.600Z,6.52
2023-02-11T11:45:19.780Z,6.73
2023-02-11T11:48:00.626Z,6.38
2023-02-11T11:50:40.145Z,6.39
2023-02-11T11:53:21.154Z,6.36
2023-02-11T11:55:53.608Z,6.28
2023-02-11T11:58:23.478Z,6.23
2023-02-11T12:00:55.954Z,6.26
2023-02-11T12:03:40.927Z,6.28
2023-02-11T12:06:30.277Z,6.11
2023-02-11T12:09:19.881Z,6.18
2023-02-11T12:12:24.030Z,6.13
2023-02-11T12:15:05.915Z,6.04
2023-02-11T12:18:13.928Z,5.66
2023-02-11T12:20:59.960Z,5.32
2023-02-11T12:23:37.319Z,5.20
2023-02-11T12:26:03.786Z,5.10
2023-02-11T12:28:39.421Z,5.04
2023-02-11T12:31:29.184Z,5.08
2023-02-11T12:34:18.361Z,5.05
2023-02-11T12:36:55.413Z,5.17
2023-02-11T12:39:38.175Z,5.12
2023-02-11T12:42:38.574Z,5.05
2023-02-11T12:45:11.044Z,4.74
2023-02-11T12:48:13.105Z,4.65
2023-02-11T12:50:59.149Z,4.39
2023-02-11T12:53:51.779Z,4.08
2023-02-11T12:56:31.296Z,4.00
2023-02-11T12:59:00.353Z,3.75
2023-02-11T13:01:33.780Z,3.75
2023-02-11T13:04:16.033Z,3.71
2023-02-11T13:06:48.558Z,3.66
2023-02-11T13:09:22.449Z,3.53
2023-02-11T13:11:53.794Z,3.51
2023-02-11T13:14:35.534Z,3.36
2023-02-11T13:17:16.181Z,3.31
2023-02-11T13:19:50.680Z,3.15
2023-02-11T13:22:24.249Z,3.00
2023-02-11T13:24:56.591Z,2.87
2023-02-11T13:27:51.196Z,2.78
2023-02-11T13:30:29.381Z,2.80
2023-02-11T13:32:56.019Z,2.76
2023-02-11T13:35:45.932Z,2.68
2023-02-11T13:38:27.607Z,2.65
2023-02-11T13:41:03.046Z,2.65
2023-02-11T13:43:34.482Z,2.67
2023-02-11T13:46:10.596Z,2.74
2023-02-11T13:48:49.962Z,2.92
2023-02-11T13:51:19.371Z,3.12
2023-02-11T13:53:58.183Z,3.11
2023-02-11T13:56:30.623Z,3.07
2023-02-11T13:59:01.874Z,3.02
2023-02-11T14:02:07.716Z,2.79
2023-02-11T14:04:53.178Z,2.74
2023-02-11T14:07:50.414Z,2.74
2023-02-11T14:10:41.730Z,2.70
2023-02-11T14:13:27.583Z,2.59
2023-02-11T14:16:13.552Z,2.52
2023-02-11T14:18:49.006Z,2.47
2023-02-11T14:21:34.165Z,2.50
2023-02-11T14:24:05.137Z,2.35
2023-02-11T14:26:53.628Z,2.37
2023-02-11T14:29:32.484Z,2.52
2023-02-11T14:31:59.084Z,2.52
2023-02-11T14:34:46.901Z,2.38
2023-02-11T14:37:38.266Z,2.32
2023-02-11T14:40:17.826Z,2.29
2023-02-11T14:42:45.319Z,2.36
2023-02-11T14:45:19.835Z,2.29
2023-02-11T14:47:59.386Z,2.32
2023-02-11T14:50:44.974Z,2.41
2023-02-11T14:53:24.274Z,2.33
2023-02-11T14:55:53.547Z,2.40
2023-02-11T14:58:24.070Z,2.77
2023-02-11T15:01:01.059Z,2.91
2023-02-11T15:03:37.686Z,2.65
2023-02-11T15:06:12.482Z,2.44
2023-02-11T15:08:45.752Z,2.29
2023-02-11T15:11:15.683Z,2.37
2023-02-11T15:13:49.724Z,2.30
2023-02-11T15:16:20.810Z,2.40
2023-02-11T15:18:51.836Z,2.55
2023-02-11T15:21:24.691Z,2.75
2023-02-11T15:23:57.213Z,2.87
2023-02-11T15:26:23.866Z,3.00
2023-02-11T15:28:52.134Z,3.01
2023-02-11T15:31:21.608Z,3.05
2023-02-11T15:33:48.322Z,3.02
2023-02-11T15:36:16.769Z,3.01
2023-02-11T15:38:43.608Z,2.97
2023-02-11T15:41:34.721Z,2.96
2023-02-11T15:44:01.294Z,2.89
2023-02-11T15:46:36.688Z,2.84
2023-02-11T15:49:03.803Z,2.81
2023-02-11T15:51:34.617Z,2.79
2023-02-11T15:54:15.302Z,2.77
2023-02-11T15:56:44.354Z,2.71
2023-02-11T15:59:23.969Z,2.64
2023-02-11T16:01:50.827Z,2.61
2023-02-11T16:04:20.807Z,2.62
2023-02-11T16:06:48.193Z,2.60
2023-02-11T16:09:14.634Z,2.64
2023-02-11T16:12:18.966Z,2.59
2023-02-11T16:14:45.533Z,2.60
2023-02-11T16:17:29.470Z,2.55
2023-02-11T16:19:56.339Z,2.57
2023-02-11T16:22:26.399Z,2.61
2023-02-11T16:24:57.321Z,2.57
2023-02-11T16:27:31.915Z,2.52
2023-02-11T16:29:58.906Z,2.51
2023-02-11T16:32:29.770Z,2.48
2023-02-11T16:34:59.099Z,2.47
2023-02-11T16:37:27.131Z,2.45
2023-02-11T16:39:54.634Z,2.44
2023-02-11T16:42:21.236Z,2.42
2023-02-11T16:44:47.778Z,2.40
2023-02-11T16:47:24.599Z,2.41
2023-02-11T16:49:51.474Z,2.41
2023-02-11T16:52:19.863Z,2.41
2023-02-11T16:54:46.860Z,2.45
2023-02-11T16:57:18.778Z,2.43
2023-02-11T16:59:46.983Z,2.41
2023-02-11T17:02:29.265Z,2.40
2023-02-11T17:04:59.556Z,2.38
2023-02-11T17:07:26.576Z,2.35
2023-02-11T17:09:53.215Z,2.32
2023-02-11T17:12:21.030Z,2.30
2023-02-11T17:14:47.736Z,2.24
2023-02-11T17:17:14.443Z,2.27
2023-02-11T17:19:41.068Z,2.28
2023-02-11T17:22:08.228Z,2.27
2023-02-11T17:24:34.783Z,2.30
2023-02-11T17:27:01.336Z,2.31
2023-02-11T17:29:28.058Z,2.30
2023-02-11T17:31:54.782Z,2.29
2023-02-11T17:34:23.006Z,2.26
2023-02-11T17:36:49.646Z,2.22
2023-02-11T17:39:16.573Z,2.25
2023-02-11T17:41:43.127Z,2.20
2023-02-11T17:44:12.453Z,2.24
2023-02-11T17:46:39.187Z,2.22
2023-02-11T17:49:06.418Z,2.14
2023-02-11T17:51:35.899Z,2.06
2023-02-11T17:54:05.619Z,1.97
2023-02-11T17:56:33.560Z,1.92
2023-02-11T17:59:02.335Z,1.93
2023-02-11T18:01:30.547Z,1.88
2023-02-11T18:03:57.553Z,1.85
2023-02-11T18:06:24.243Z,1.80
2023-02-11T18:08:50.780Z,1.74
2023-02-11T18:11:17.780Z,1.70
2023-02-11T18:13:45.377Z,1.66
2023-02-11T18:16:16.088Z,1.64
2023-02-11T18:18:43.590Z,1.60
2023-02-11T18:21:15.265Z,1.60
2023-02-11T18:23:41.865Z,1.66
2023-02-11T18:26:09.981Z,1.67
2023-02-11T18:28:37.003Z,1.69
2023-02-11T18:31:07.911Z,1.67
2023-02-11T18:33:36.315Z,1.68
2023-02-11T18:36:07.332Z,1.63
2023-02-11T18:38:34.400Z,1.59
2023-02-11T18:41:01.142Z,1.56
2023-02-11T18:43:31.684Z,1.54
2023-02-11T18:45:58.392Z,1.52
2023-02-11T18:48:28.592Z,1.54
2023-02-11T18:50:55.647Z,1.52
2023-02-11T18:53:23.130Z,1.52
2023-02-11T18:55:50.007Z,1.52
2023-02-11T18:58:17.132Z,1.53
2023-02-11T19:00:46.347Z,1.55
2023-02-11T19:03:12.997Z,1.55
2023-02-11T19:05:44.120Z,1.54
2023-02-11T19:08:10.876Z,1.52
2023-02-11T19:10:45.984Z,1.51
2023-02-11T19:13:13.089Z,1.54
2023-02-11T19:15:44.476Z,1.56
2023-02-11T19:18:12.554Z,1.60
2023-02-11T19:20:40.416Z,1.64
2023-02-11T19:23:07.508Z,1.66
2023-02-11T19:25:34.611Z,1.65
2023-02-11T19:28:01.487Z,1.66
2023-02-11T19:30:28.185Z,1.65
2023-02-11T19:32:57.205Z,1.65
2023-02-11T19:35:24.816Z,1.63
2023-02-11T19:37:51.354Z,1.63
2023-02-11T19:40:19.219Z,1.65
2023-02-11T19:42:45.856Z,1.62
2023-02-11T19:45:12.665Z,1.60
2023-02-11T19:47:39.430Z,1.59
2023-02-11T19:50:06.621Z,1.56
2023-02-11T19:52:33.221Z,1.54
2023-02-11T19:55:00.472Z,1.49
2023-02-11T19:57:27.178Z,1.51
2023-02-11T19:59:55.048Z,1.53
2023-02-11T20:02:21.674Z,1.49
2023-02-11T20:04:48.569Z,1.49
2023-02-11T20:07:15.211Z,1.45
2023-02-11T20:09:42.639Z,1.44
2023-02-11T20:12:10.414Z,1.44
2023-02-11T20:14:37.010Z,1.46
2023-02-11T20:17:03.816Z,1.46
2023-02-11T20:19:30.766Z,1.46
2023-02-11T20:21:57.356Z,1.51
2023-02-11T20:24:25.489Z,1.53
2023-02-11T20:26:55.510Z,1.56
2023-02-11T20:29:22.745Z,1.58
2023-02-11T20:31:50.135Z,1.57
2023-02-11T20:34:18.031Z,1.56
2023-02-11T20:36:51.610Z,1.54
2023-02-11T20:39:21.901Z,1.57
2023-02-11T20:41:49.323Z,1.53
2023-02-11T20:44:16.184Z,1.53
2023-02-11T20:46:47.903Z,1.52
2023-02-11T20:49:16.500Z,1.51
2023-02-11T20:51:43.395Z,1.53
2023-02-11T20:54:14.931Z,1.53
2023-02-11T20:56:41.650Z,1.55
2023-02-11T20:59:08.562Z,1.55
2023-02-11T21:01:43.292Z,1.53
2023-02-11T21:04:18.706Z,1.55
2023-02-11T21:06:49.158Z,1.51
2023-02-11T21:09:19.813Z,1.48
2023-02-11T21:11:47.300Z,1.46
2023-02-11T21:14:13.879Z,1.46
2023-02-11T21:16:41.033Z,1.48
2023-02-11T21:19:07.707Z,1.47
2023-02-11T21:21:38.181Z,1.43
2023-02-11T21:24:08.457Z,1.41
2023-02-11T21:26:35.606Z,1.41
2023-02-11T21:29:04.067Z,1.43
2023-02-11T21:31:33.341Z,1.43
2023-02-11T21:34:00.044Z,1.41
2023-02-11T21:36:28.315Z,1.42
2023-02-11T21:38:55.008Z,1.40
2023-02-11T21:41:22.785Z,1.36
2023-02-11T21:43:50.357Z,1.35
2023-02-11T21:46:17.936Z,1.34
2023-02-11T21:48:44.519Z,1.29
2023-02-11T21:51:17.625Z,1.28
2023-02-11T21:53:44.924Z,1.24
2023-02-11T21:56:14.070Z,1.27
2023-02-11T21:58:40.747Z,1.20
2023-02-11T22:01:13.141Z,1.20
2023-02-11T22:03:39.850Z,1.21
2023-02-11T22:06:12.594Z,1.23
2023-02-11T22:08:39.821Z,1.21
2023-02-11T22:11:08.602Z,1.19
2023-02-11T22:13:36.036Z,1.19
2023-02-11T22:16:05.615Z,1.20
2023-02-11T22:18:32.603Z,1.19
2023-02-11T22:21:05.394Z,1.22
2023-02-11T22:23:32.232Z,1.21
2023-02-11T22:26:03.260Z,1.19
2023-02-11T22:28:30.147Z,1.22
2023-02-11T22:30:58.204Z,1.21
2023-02-11T22:33:25.889Z,1.20
2023-02-11T22:36:04.420Z,1.20
2023-02-11T22:38:31.860Z,1.23
2023-02-11T22:40:59.704Z,1.29
2023-02-11T22:43:27.800Z,1.36
2023-02-11T22:45:56.463Z,1.37
2023-02-11T22:48:23.422Z,1.35
2023-02-11T22:50:50.023Z,1.31
2023-02-11T22:53:16.746Z,1.25
2023-02-11T22:55:43.336Z,1.27
2023-02-11T22:58:09.918Z,1.33
2023-02-11T23:00:40.673Z,1.35
2023-02-11T23:03:08.573Z,1.33
2023-02-11T23:05:42.155Z,1.34
2023-02-11T23:08:11.037Z,1.31
2023-02-11T23:10:39.718Z,1.32
2023-02-11T23:13:07.882Z,1.32
2023-02-11T23:15:38.412Z,1.32
2023-02-11T23:18:05.225Z,1.31
2023-02-11T23:20:34.417Z,1.30
2023-02-11T23:23:00.964Z,1.26
2023-02-11T23:25:27.539Z,1.20
2023-02-11T23:27:54.169Z,1.20
2023-02-11T23:30:21.874Z,1.14
2023-02-11T23:32:49.338Z,1.13
2023-02-11T23:35:22.086Z,1.10
2023-02-11T23:37:50.360Z,1.09
2023-02-11T23:40:17.438Z,1.06
2023-02-11T23:42:44.130Z,1.04
2023-02-11T23:45:10.786Z,1.00
2023-02-11T23:47:37.406Z,1.03
2023-02-11T23:50:04.144Z,1.00
2023-02-11T23:52:30.697Z,1.01
2023-02-11T23:54:57.240Z,0.99
2023-02-11T23:57:23.836Z,1.00
2023-02-11T23:59:50.738Z,0.99
